< < Back
Terminal Aerodrome Forecast


Current Version              Previous Versions:   1  2  3  4  5  6  7  8  9  

Terminal Aerodrome Forecast

770
FTUS44 KBMX 041724
TAFTCL
TAF
KTCL 041724Z 0418/0518 15006KT P6SM SCT070
     FM050000 11002KT P6SM SKC=



Latest METAR

311
SAUS70 KWBC 050000 RRC
MTRTCL
METAR KTCL 042353Z 10004KT 7SM CLR 26/13 A3019 RMK AO2 SLP221 T02560133
10289 20256 56004


USA.gov is the U.S. government's official web portal to all federal, state and local government web resources and services.